sensor_id;sensor_type;location;lat;lon;timestamp;P1;durP1;ratioP1;P2;durP2;ratioP2
49758;SDS011;35654;46.080;11.118;2022-09-09T00:06:43;7.43;;;3.67;;
49758;SDS011;35654;46.080;11.118;2022-09-09T00:09:17;9.65;;;3.40;;
49758;SDS011;35654;46.080;11.118;2022-09-09T00:17:30;7.93;;;3.42;;
49758;SDS011;35654;46.080;11.118;2022-09-09T00:20:20;9.25;;;3.05;;
49758;SDS011;35654;46.080;11.118;2022-09-09T00:23:20;9.25;;;3.00;;
49758;SDS011;35654;46.080;11.118;2022-09-09T00:28:27;9.15;;;3.22;;
49758;SDS011;35654;46.080;11.118;2022-09-09T00:30:59;5.22;;;3.10;;
49758;SDS011;35654;46.080;11.118;2022-09-09T00:33:35;5.25;;;2.67;;
49758;SDS011;35654;46.080;11.118;2022-09-09T00:36:02;5.32;;;2.97;;
49758;SDS011;35654;46.080;11.118;2022-09-09T00:38:31;6.20;;;2.70;;
49758;SDS011;35654;46.080;11.118;2022-09-09T00:43:46;10.55;;;2.95;;
49758;SDS011;35654;46.080;11.118;2022-09-09T00:46:23;7.72;;;2.97;;
49758;SDS011;35654;46.080;11.118;2022-09-09T00:49:14;4.50;;;2.80;;
49758;SDS011;35654;46.080;11.118;2022-09-09T00:51:48;6.38;;;2.60;;
49758;SDS011;35654;46.080;11.118;2022-09-09T00:54:59;9.20;;;2.80;;
49758;SDS011;35654;46.080;11.118;2022-09-09T01:11:17;8.05;;;2.72;;
49758;SDS011;35654;46.080;11.118;2022-09-09T01:13:47;9.70;;;2.88;;
49758;SDS011;35654;46.080;11.118;2022-09-09T01:16:20;7.30;;;2.47;;
49758;SDS011;35654;46.080;11.118;2022-09-09T01:18:46;4.97;;;2.50;;
49758;SDS011;35654;46.080;11.118;2022-09-09T01:27:01;7.05;;;2.90;;
49758;SDS011;35654;46.080;11.118;2022-09-09T01:29:30;7.00;;;2.45;;
49758;SDS011;35654;46.080;11.118;2022-09-09T01:32:00;6.90;;;2.42;;
49758;SDS011;35654;46.080;11.118;2022-09-09T01:34:29;6.93;;;2.70;;
49758;SDS011;35654;46.080;11.118;2022-09-09T01:39:27;10.38;;;2.78;;
49758;SDS011;35654;46.080;11.118;2022-09-09T01:41:56;7.50;;;2.53;;
49758;SDS011;35654;46.080;11.118;2022-09-09T01:44:22;5.38;;;2.70;;
49758;SDS011;35654;46.080;11.118;2022-09-09T01:46:49;6.15;;;2.60;;
49758;SDS011;35654;46.080;11.118;2022-09-09T01:49:16;5.70;;;2.80;;
49758;SDS011;35654;46.080;11.118;2022-09-09T01:51:42;6.78;;;2.42;;
49758;SDS011;35654;46.080;11.118;2022-09-09T01:54:11;5.03;;;2.45;;
49758;SDS011;35654;46.080;11.118;2022-09-09T01:57:20;5.57;;;2.47;;
49758;SDS011;35654;46.080;11.118;2022-09-09T02:02:18;6.53;;;2.83;;
49758;SDS011;35654;46.080;11.118;2022-09-09T02:04:50;9.77;;;2.72;;
49758;SDS011;35654;46.080;11.118;2022-09-09T02:07:25;6.45;;;3.00;;
49758;SDS011;35654;46.080;11.118;2022-09-09T02:10:05;6.28;;;2.42;;
49758;SDS011;35654;46.080;11.118;2022-09-09T02:12:42;6.10;;;2.90;;
49758;SDS011;35654;46.080;11.118;2022-09-09T02:15:17;8.95;;;2.50;;
49758;SDS011;35654;46.080;11.118;2022-09-09T02:17:51;5.05;;;2.80;;
49758;SDS011;35654;46.080;11.118;2022-09-09T02:20:19;4.43;;;2.30;;
49758;SDS011;35654;46.080;11.118;2022-09-09T02:22:47;3.47;;;2.00;;
49758;SDS011;35654;46.080;11.118;2022-09-09T02:25:15;10.68;;;2.28;;
49758;SDS011;35654;46.080;11.118;2022-09-09T02:27:45;4.75;;;2.28;;
49758;SDS011;35654;46.080;11.118;2022-09-09T02:30:12;9.75;;;2.40;;
49758;SDS011;35654;46.080;11.118;2022-09-09T02:32:40;2.85;;;2.45;;
49758;SDS011;35654;46.080;11.118;2022-09-09T02:35:09;6.88;;;2.25;;
49758;SDS011;35654;46.080;11.118;2022-09-09T02:37:38;9.38;;;2.35;;
49758;SDS011;35654;46.080;11.118;2022-09-09T02:40:06;9.32;;;2.28;;
49758;SDS011;35654;46.080;11.118;2022-09-09T02:42:43;4.45;;;2.22;;
49758;SDS011;35654;46.080;11.118;2022-09-09T02:45:11;4.32;;;2.33;;
49758;SDS011;35654;46.080;11.118;2022-09-09T02:50:34;10.15;;;2.40;;
49758;SDS011;35654;46.080;11.118;2022-09-09T02:55:49;5.85;;;2.47;;
49758;SDS011;35654;46.080;11.118;2022-09-09T02:58:19;4.85;;;2.30;;
49758;SDS011;35654;46.080;11.118;2022-09-09T03:00:46;7.07;;;2.20;;
49758;SDS011;35654;46.080;11.118;2022-09-09T03:03:14;5.10;;;2.47;;
49758;SDS011;35654;46.080;11.118;2022-09-09T03:05:41;6.15;;;2.38;;
49758;SDS011;35654;46.080;11.118;2022-09-09T03:10:33;5.10;;;2.25;;
49758;SDS011;35654;46.080;11.118;2022-09-09T03:12:59;5.75;;;2.40;;
49758;SDS011;35654;46.080;11.118;2022-09-09T03:15:25;5.15;;;2.40;;
49758;SDS011;35654;46.080;11.118;2022-09-09T03:17:56;8.90;;;2.67;;
49758;SDS011;35654;46.080;11.118;2022-09-09T03:20:26;5.97;;;2.40;;
49758;SDS011;35654;46.080;11.118;2022-09-09T03:22:53;5.18;;;2.63;;
49758;SDS011;35654;46.080;11.118;2022-09-09T03:25:19;4.28;;;2.45;;
49758;SDS011;35654;46.080;11.118;2022-09-09T03:27:45;5.22;;;2.20;;
49758;SDS011;35654;46.080;11.118;2022-09-09T03:30:11;4.93;;;2.40;;
49758;SDS011;35654;46.080;11.118;2022-09-09T03:32:36;10.00;;;2.33;;
49758;SDS011;35654;46.080;11.118;2022-09-09T03:35:02;7.23;;;2.30;;
49758;SDS011;35654;46.080;11.118;2022-09-09T03:37:28;3.97;;;2.35;;
49758;SDS011;35654;46.080;11.118;2022-09-09T03:39:53;8.03;;;2.67;;
49758;SDS011;35654;46.080;11.118;2022-09-09T03:42:19;6.00;;;2.55;;
49758;SDS011;35654;46.080;11.118;2022-09-09T03:44:45;9.07;;;2.45;;
49758;SDS011;35654;46.080;11.118;2022-09-09T03:47:18;10.85;;;2.70;;
49758;SDS011;35654;46.080;11.118;2022-09-09T03:49:46;10.02;;;2.72;;
49758;SDS011;35654;46.080;11.118;2022-09-09T03:52:13;9.70;;;2.88;;
49758;SDS011;35654;46.080;11.118;2022-09-09T03:54:39;5.70;;;2.70;;
49758;SDS011;35654;46.080;11.118;2022-09-09T03:57:06;6.53;;;2.50;;
49758;SDS011;35654;46.080;11.118;2022-09-09T03:59:31;4.15;;;2.47;;
49758;SDS011;35654;46.080;11.118;2022-09-09T04:01:57;7.33;;;2.40;;
49758;SDS011;35654;46.080;11.118;2022-09-09T04:04:24;7.18;;;2.40;;
49758;SDS011;35654;46.080;11.118;2022-09-09T04:06:49;8.40;;;2.65;;
49758;SDS011;35654;46.080;11.118;2022-09-09T04:11:41;6.88;;;2.30;;
49758;SDS011;35654;46.080;11.118;2022-09-09T04:14:06;6.80;;;2.30;;
49758;SDS011;35654;46.080;11.118;2022-09-09T04:16:32;5.83;;;2.40;;
49758;SDS011;35654;46.080;11.118;2022-09-09T04:18:59;7.15;;;2.20;;
49758;SDS011;35654;46.080;11.118;2022-09-09T04:21:25;6.30;;;2.30;;
49758;SDS011;35654;46.080;11.118;2022-09-09T04:26:16;8.85;;;2.55;;
49758;SDS011;35654;46.080;11.118;2022-09-09T04:28:42;3.90;;;2.20;;
49758;SDS011;35654;46.080;11.118;2022-09-09T04:31:08;5.30;;;2.40;;
49758;SDS011;35654;46.080;11.118;2022-09-09T04:33:37;10.45;;;2.53;;
49758;SDS011;35654;46.080;11.118;2022-09-09T04:36:03;8.63;;;2.38;;
49758;SDS011;35654;46.080;11.118;2022-09-09T04:38:29;7.47;;;2.38;;
49758;SDS011;35654;46.080;11.118;2022-09-09T04:40:54;5.00;;;2.20;;
49758;SDS011;35654;46.080;11.118;2022-09-09T04:43:20;5.43;;;3.20;;
49758;SDS011;35654;46.080;11.118;2022-09-09T04:45:50;5.75;;;2.25;;
49758;SDS011;35654;46.080;11.118;2022-09-09T04:48:18;5.75;;;2.25;;
49758;SDS011;35654;46.080;11.118;2022-09-09T04:50:53;2.85;;;2.35;;
49758;SDS011;35654;46.080;11.118;2022-09-09T04:53:21;5.93;;;2.42;;
49758;SDS011;35654;46.080;11.118;2022-09-09T04:55:48;8.50;;;2.30;;
49758;SDS011;35654;46.080;11.118;2022-09-09T04:58:15;7.85;;;2.67;;
49758;SDS011;35654;46.080;11.118;2022-09-09T05:00:42;5.38;;;2.50;;
49758;SDS011;35654;46.080;11.118;2022-09-09T05:03:09;10.15;;;2.70;;
49758;SDS011;35654;46.080;11.118;2022-09-09T05:05:34;9.00;;;2.60;;
49758;SDS011;35654;46.080;11.118;2022-09-09T05:08:03;6.20;;;2.60;;
49758;SDS011;35654;46.080;11.118;2022-09-09T05:10:31;10.30;;;2.67;;
49758;SDS011;35654;46.080;11.118;2022-09-09T05:15:25;9.40;;;2.90;;
49758;SDS011;35654;46.080;11.118;2022-09-09T05:17:52;8.43;;;2.95;;
49758;SDS011;35654;46.080;11.118;2022-09-09T05:20:23;11.40;;;2.85;;
49758;SDS011;35654;46.080;11.118;2022-09-09T05:22:52;8.43;;;2.75;;
49758;SDS011;35654;46.080;11.118;2022-09-09T05:25:22;13.13;;;2.70;;
49758;SDS011;35654;46.080;11.118;2022-09-09T05:27:52;6.70;;;2.50;;
49758;SDS011;35654;46.080;11.118;2022-09-09T05:30:20;6.65;;;2.78;;
49758;SDS011;35654;46.080;11.118;2022-09-09T05:32:48;6.70;;;2.92;;
49758;SDS011;35654;46.080;11.118;2022-09-09T05:35:15;9.95;;;3.00;;
49758;SDS011;35654;46.080;11.118;2022-09-09T05:37:42;5.93;;;3.15;;
49758;SDS011;35654;46.080;11.118;2022-09-09T05:42:37;8.32;;;2.55;;
49758;SDS011;35654;46.080;11.118;2022-09-09T05:45:05;7.78;;;2.35;;
49758;SDS011;35654;46.080;11.118;2022-09-09T05:47:34;8.90;;;2.63;;
49758;SDS011;35654;46.080;11.118;2022-09-09T05:50:03;9.88;;;2.92;;
49758;SDS011;35654;46.080;11.118;2022-09-09T05:52:30;11.10;;;2.25;;
49758;SDS011;35654;46.080;11.118;2022-09-09T05:54:58;12.60;;;3.05;;
49758;SDS011;35654;46.080;11.118;2022-09-09T05:57:26;8.15;;;2.35;;
49758;SDS011;35654;46.080;11.118;2022-09-09T05:59:52;7.25;;;2.80;;
49758;SDS011;35654;46.080;11.118;2022-09-09T06:02:19;7.82;;;2.60;;
49758;SDS011;35654;46.080;11.118;2022-09-09T06:04:46;5.32;;;2.53;;
49758;SDS011;35654;46.080;11.118;2022-09-09T06:07:13;8.00;;;2.75;;
49758;SDS011;35654;46.080;11.118;2022-09-09T06:09:40;11.40;;;3.17;;
49758;SDS011;35654;46.080;11.118;2022-09-09T06:12:07;10.57;;;3.15;;
49758;SDS011;35654;46.080;11.118;2022-09-09T06:14:35;13.15;;;3.00;;
49758;SDS011;35654;46.080;11.118;2022-09-09T06:17:03;9.02;;;3.13;;
49758;SDS011;35654;46.080;11.118;2022-09-09T06:19:33;16.08;;;3.10;;
49758;SDS011;35654;46.080;11.118;2022-09-09T06:22:00;5.93;;;2.80;;
49758;SDS011;35654;46.080;11.118;2022-09-09T06:24:27;7.10;;;2.60;;
49758;SDS011;35654;46.080;11.118;2022-09-09T06:26:54;17.95;;;3.13;;
49758;SDS011;35654;46.080;11.118;2022-09-09T06:29:19;8.90;;;4.20;;
49758;SDS011;35654;46.080;11.118;2022-09-09T06:31:46;11.53;;;3.17;;
49758;SDS011;35654;46.080;11.118;2022-09-09T06:34:13;9.00;;;2.80;;
49758;SDS011;35654;46.080;11.118;2022-09-09T06:36:40;9.18;;;2.90;;
49758;SDS011;35654;46.080;11.118;2022-09-09T06:39:07;6.25;;;2.33;;
49758;SDS011;35654;46.080;11.118;2022-09-09T06:41:34;10.48;;;2.50;;
49758;SDS011;35654;46.080;11.118;2022-09-09T06:44:01;4.70;;;3.10;;
49758;SDS011;35654;46.080;11.118;2022-09-09T06:46:29;14.38;;;3.08;;
49758;SDS011;35654;46.080;11.118;2022-09-09T06:48:58;9.85;;;3.10;;
49758;SDS011;35654;46.080;11.118;2022-09-09T06:51:27;7.93;;;3.00;;
49758;SDS011;35654;46.080;11.118;2022-09-09T06:53:59;11.05;;;2.78;;
49758;SDS011;35654;46.080;11.118;2022-09-09T06:56:35;10.25;;;2.72;;
49758;SDS011;35654;46.080;11.118;2022-09-09T06:59:04;9.88;;;3.13;;
49758;SDS011;35654;46.080;11.118;2022-09-09T07:01:33;7.32;;;2.30;;
49758;SDS011;35654;46.080;11.118;2022-09-09T07:04:01;7.75;;;2.40;;
49758;SDS011;35654;46.080;11.118;2022-09-09T07:06:31;6.43;;;2.13;;
49758;SDS011;35654;46.080;11.118;2022-09-09T07:09:15;6.57;;;1.90;;
49758;SDS011;35654;46.080;11.118;2022-09-09T07:11:46;7.80;;;2.20;;
49758;SDS011;35654;46.080;11.118;2022-09-09T07:14:13;6.68;;;2.15;;
49758;SDS011;35654;46.080;11.118;2022-09-09T07:16:40;10.40;;;2.10;;
49758;SDS011;35654;46.080;11.118;2022-09-09T07:19:06;8.13;;;2.42;;
49758;SDS011;35654;46.080;11.118;2022-09-09T07:21:33;12.40;;;2.35;;
49758;SDS011;35654;46.080;11.118;2022-09-09T07:26:25;5.40;;;2.15;;
49758;SDS011;35654;46.080;11.118;2022-09-09T07:28:52;5.93;;;2.00;;
49758;SDS011;35654;46.080;11.118;2022-09-09T07:31:19;7.13;;;2.03;;
49758;SDS011;35654;46.080;11.118;2022-09-09T07:33:47;5.65;;;1.70;;
49758;SDS011;35654;46.080;11.118;2022-09-09T07:38:46;12.13;;;2.10;;
49758;SDS011;35654;46.080;11.118;2022-09-09T07:41:14;8.20;;;3.63;;
49758;SDS011;35654;46.080;11.118;2022-09-09T07:43:42;8.48;;;2.67;;
49758;SDS011;35654;46.080;11.118;2022-09-09T07:46:10;7.78;;;2.00;;
49758;SDS011;35654;46.080;11.118;2022-09-09T07:48:37;13.43;;;2.88;;
49758;SDS011;35654;46.080;11.118;2022-09-09T07:51:04;7.25;;;2.55;;
49758;SDS011;35654;46.080;11.118;2022-09-09T07:53:35;7.22;;;2.78;;
49758;SDS011;35654;46.080;11.118;2022-09-09T07:56:08;10.43;;;2.85;;
49758;SDS011;35654;46.080;11.118;2022-09-09T07:58:36;8.35;;;2.90;;
49758;SDS011;35654;46.080;11.118;2022-09-09T08:03:34;8.23;;;2.40;;
49758;SDS011;35654;46.080;11.118;2022-09-09T08:06:01;8.15;;;2.50;;
49758;SDS011;35654;46.080;11.118;2022-09-09T08:08:28;9.32;;;2.30;;
49758;SDS011;35654;46.080;11.118;2022-09-09T08:10:54;9.30;;;2.30;;
49758;SDS011;35654;46.080;11.118;2022-09-09T08:13:27;6.57;;;2.65;;
49758;SDS011;35654;46.080;11.118;2022-09-09T08:15:52;6.03;;;2.30;;
49758;SDS011;35654;46.080;11.118;2022-09-09T08:18:18;7.80;;;2.37;;
49758;SDS011;35654;46.080;11.118;2022-09-09T08:20:43;9.13;;;2.65;;
49758;SDS011;35654;46.080;11.118;2022-09-09T08:23:09;10.87;;;2.97;;
49758;SDS011;35654;46.080;11.118;2022-09-09T08:25:34;6.43;;;2.47;;
49758;SDS011;35654;46.080;11.118;2022-09-09T08:27:59;9.77;;;2.40;;
49758;SDS011;35654;46.080;11.118;2022-09-09T08:30:25;9.98;;;2.80;;
49758;SDS011;35654;46.080;11.118;2022-09-09T08:35:16;9.13;;;2.75;;
49758;SDS011;35654;46.080;11.118;2022-09-09T08:37:42;7.13;;;2.50;;
49758;SDS011;35654;46.080;11.118;2022-09-09T08:40:09;9.33;;;2.57;;
49758;SDS011;35654;46.080;11.118;2022-09-09T08:42:49;5.72;;;2.70;;
49758;SDS011;35654;46.080;11.118;2022-09-09T08:45:21;5.63;;;2.40;;
49758;SDS011;35654;46.080;11.118;2022-09-09T08:50:43;6.15;;;2.20;;
49758;SDS011;35654;46.080;11.118;2022-09-09T09:00:57;7.38;;;2.28;;
49758;SDS011;35654;46.080;11.118;2022-09-09T09:06:08;8.65;;;2.30;;
49758;SDS011;35654;46.080;11.118;2022-09-09T09:08:51;5.28;;;2.28;;
49758;SDS011;35654;46.080;11.118;2022-09-09T09:11:40;7.70;;;2.40;;
49758;SDS011;35654;46.080;11.118;2022-09-09T09:19:16;9.75;;;2.88;;
49758;SDS011;35654;46.080;11.118;2022-09-09T09:27:00;4.15;;;1.92;;
49758;SDS011;35654;46.080;11.118;2022-09-09T09:29:37;7.90;;;2.60;;
49758;SDS011;35654;46.080;11.118;2022-09-09T09:32:04;5.47;;;2.20;;
49758;SDS011;35654;46.080;11.118;2022-09-09T09:34:34;5.25;;;2.30;;
49758;SDS011;35654;46.080;11.118;2022-09-09T09:37:00;3.67;;;2.30;;
49758;SDS011;35654;46.080;11.118;2022-09-09T09:39:30;5.20;;;2.28;;
49758;SDS011;35654;46.080;11.118;2022-09-09T09:42:12;4.72;;;2.03;;
49758;SDS011;35654;46.080;11.118;2022-09-09T09:44:40;8.30;;;2.40;;
49758;SDS011;35654;46.080;11.118;2022-09-09T09:47:22;5.32;;;2.10;;
49758;SDS011;35654;46.080;11.118;2022-09-09T09:49:55;5.97;;;2.08;;
49758;SDS011;35654;46.080;11.118;2022-09-09T09:52:24;5.60;;;1.73;;
49758;SDS011;35654;46.080;11.118;2022-09-09T09:54:54;2.35;;;1.40;;
49758;SDS011;35654;46.080;11.118;2022-09-09T09:57:31;5.68;;;1.73;;
49758;SDS011;35654;46.080;11.118;2022-09-09T10:00:04;6.70;;;1.80;;
49758;SDS011;35654;46.080;11.118;2022-09-09T10:02:40;4.85;;;1.40;;
49758;SDS011;35654;46.080;11.118;2022-09-09T10:07:57;2.00;;;1.10;;
49758;SDS011;35654;46.080;11.118;2022-09-09T10:19:30;0.98;;;0.88;;
49758;SDS011;35654;46.080;11.118;2022-09-09T10:22:19;1.92;;;0.90;;
49758;SDS011;35654;46.080;11.118;2022-09-09T10:33:30;1.00;;;0.82;;
49758;SDS011;35654;46.080;11.118;2022-09-09T10:36:19;1.20;;;0.90;;
49758;SDS011;35654;46.080;11.118;2022-09-09T10:38:48;4.22;;;0.93;;
49758;SDS011;35654;46.080;11.118;2022-09-09T10:44:06;3.15;;;1.02;;
49758;SDS011;35654;46.080;11.118;2022-09-09T10:55:25;3.05;;;0.93;;
49758;SDS011;35654;46.080;11.118;2022-09-09T10:57:57;1.63;;;0.85;;
49758;SDS011;35654;46.080;11.118;2022-09-09T11:00:27;1.30;;;0.90;;
49758;SDS011;35654;46.080;11.118;2022-09-09T11:03:03;3.25;;;0.93;;
49758;SDS011;35654;46.080;11.118;2022-09-09T11:08:19;1.38;;;0.88;;
49758;SDS011;35654;46.080;11.118;2022-09-09T11:11:02;2.00;;;1.02;;
49758;SDS011;35654;46.080;11.118;2022-09-09T11:19:03;3.72;;;1.08;;
49758;SDS011;35654;46.080;11.118;2022-09-09T11:21:46;2.17;;;1.00;;
49758;SDS011;35654;46.080;11.118;2022-09-09T11:25:01;4.20;;;1.40;;
49758;SDS011;35654;46.080;11.118;2022-09-09T11:27:14;4.53;;;1.10;;
49758;SDS011;35654;46.080;11.118;2022-09-09T11:36:04;2.47;;;1.08;;
49758;SDS011;35654;46.080;11.118;2022-09-09T11:38:50;1.27;;;0.90;;
49758;SDS011;35654;46.080;11.118;2022-09-09T11:41:17;1.52;;;0.90;;
49758;SDS011;35654;46.080;11.118;2022-09-09T11:46:20;3.53;;;0.90;;
49758;SDS011;35654;46.080;11.118;2022-09-09T11:49:03;3.88;;;0.95;;
49758;SDS011;35654;46.080;11.118;2022-09-09T11:51:31;4.18;;;1.38;;
49758;SDS011;35654;46.080;11.118;2022-09-09T11:53:59;4.07;;;1.00;;
49758;SDS011;35654;46.080;11.118;2022-09-09T11:56:42;1.63;;;0.90;;
49758;SDS011;35654;46.080;11.118;2022-09-09T11:59:19;2.78;;;1.00;;
49758;SDS011;35654;46.080;11.118;2022-09-09T12:02:30;1.42;;;0.85;;
49758;SDS011;35654;46.080;11.118;2022-09-09T12:05:06;3.20;;;2.00;;
49758;SDS011;35654;46.080;11.118;2022-09-09T12:07:37;2.10;;;0.98;;
49758;SDS011;35654;46.080;11.118;2022-09-09T12:25:47;1.52;;;1.15;;
49758;SDS011;35654;46.080;11.118;2022-09-09T12:28:40;3.97;;;0.65;;
49758;SDS011;35654;46.080;11.118;2022-09-09T12:34:17;1.15;;;1.00;;
49758;SDS011;35654;46.080;11.118;2022-09-09T12:37:02;5.20;;;1.33;;
49758;SDS011;35654;46.080;11.118;2022-09-09T12:39:38;2.15;;;0.60;;
49758;SDS011;35654;46.080;11.118;2022-09-09T12:42:16;4.47;;;1.27;;
49758;SDS011;35654;46.080;11.118;2022-09-09T12:44:55;0.68;;;0.60;;
49758;SDS011;35654;46.080;11.118;2022-09-09T12:47:24;2.20;;;0.90;;
49758;SDS011;35654;46.080;11.118;2022-09-09T12:49:55;2.17;;;0.90;;
49758;SDS011;35654;46.080;11.118;2022-09-09T12:52:29;0.82;;;0.68;;
49758;SDS011;35654;46.080;11.118;2022-09-09T12:54:59;1.88;;;0.70;;
49758;SDS011;35654;46.080;11.118;2022-09-09T12:57:29;0.82;;;0.60;;
49758;SDS011;35654;46.080;11.118;2022-09-09T13:00:11;4.20;;;1.25;;
49758;SDS011;35654;46.080;11.118;2022-09-09T13:02:45;0.82;;;0.75;;
49758;SDS011;35654;46.080;11.118;2022-09-09T13:05:22;1.15;;;0.50;;
49758;SDS011;35654;46.080;11.118;2022-09-09T13:08:03;2.72;;;1.67;;
49758;SDS011;35654;46.080;11.118;2022-09-09T13:10:31;0.60;;;0.60;;
49758;SDS011;35654;46.080;11.118;2022-09-09T13:13:00;2.13;;;0.70;;
49758;SDS011;35654;46.080;11.118;2022-09-09T13:15:27;2.42;;;0.70;;
49758;SDS011;35654;46.080;11.118;2022-09-09T13:17:55;2.92;;;0.68;;
49758;SDS011;35654;46.080;11.118;2022-09-09T13:20:23;1.08;;;0.60;;
49758;SDS011;35654;46.080;11.118;2022-09-09T13:22:50;1.27;;;0.60;;
49758;SDS011;35654;46.080;11.118;2022-09-09T13:27:53;1.60;;;0.80;;
49758;SDS011;35654;46.080;11.118;2022-09-09T13:33:00;3.72;;;0.70;;
49758;SDS011;35654;46.080;11.118;2022-09-09T13:35:27;1.30;;;0.57;;
49758;SDS011;35654;46.080;11.118;2022-09-09T13:37:53;1.83;;;1.20;;
49758;SDS011;35654;46.080;11.118;2022-09-09T13:40:22;1.65;;;0.70;;
49758;SDS011;35654;46.080;11.118;2022-09-09T13:42:51;4.03;;;2.90;;
49758;SDS011;35654;46.080;11.118;2022-09-09T13:45:19;1.30;;;1.20;;
49758;SDS011;35654;46.080;11.118;2022-09-09T13:47:48;2.67;;;0.90;;
49758;SDS011;35654;46.080;11.118;2022-09-09T13:52:52;2.20;;;0.63;;
49758;SDS011;35654;46.080;11.118;2022-09-09T13:55:20;3.58;;;1.10;;
49758;SDS011;35654;46.080;11.118;2022-09-09T13:57:54;2.97;;;0.80;;
49758;SDS011;35654;46.080;11.118;2022-09-09T14:00:25;4.40;;;0.75;;
49758;SDS011;35654;46.080;11.118;2022-09-09T14:02:53;3.40;;;1.20;;
49758;SDS011;35654;46.080;11.118;2022-09-09T14:05:20;2.20;;;0.70;;
49758;SDS011;35654;46.080;11.118;2022-09-09T14:07:47;2.95;;;0.57;;
49758;SDS011;35654;46.080;11.118;2022-09-09T14:10:13;1.25;;;0.80;;
49758;SDS011;35654;46.080;11.118;2022-09-09T14:12:39;1.10;;;0.60;;
49758;SDS011;35654;46.080;11.118;2022-09-09T14:15:05;3.05;;;0.98;;
49758;SDS011;35654;46.080;11.118;2022-09-09T14:17:32;1.13;;;0.50;;
49758;SDS011;35654;46.080;11.118;2022-09-09T14:19:58;2.28;;;0.70;;
49758;SDS011;35654;46.080;11.118;2022-09-09T14:22:23;2.33;;;0.40;;
49758;SDS011;35654;46.080;11.118;2022-09-09T14:24:50;1.17;;;0.60;;
49758;SDS011;35654;46.080;11.118;2022-09-09T14:27:16;1.15;;;0.40;;
49758;SDS011;35654;46.080;11.118;2022-09-09T14:29:41;4.75;;;0.65;;
49758;SDS011;35654;46.080;11.118;2022-09-09T14:32:08;2.72;;;0.77;;
49758;SDS011;35654;46.080;11.118;2022-09-09T14:34:34;0.88;;;0.52;;
49758;SDS011;35654;46.080;11.118;2022-09-09T14:37:00;2.67;;;0.60;;
49758;SDS011;35654;46.080;11.118;2022-09-09T14:39:26;2.15;;;0.65;;
49758;SDS011;35654;46.080;11.118;2022-09-09T14:41:51;1.75;;;0.65;;
49758;SDS011;35654;46.080;11.118;2022-09-09T14:44:17;1.00;;;0.60;;
49758;SDS011;35654;46.080;11.118;2022-09-09T14:46:43;1.95;;;0.60;;
49758;SDS011;35654;46.080;11.118;2022-09-09T14:49:08;2.20;;;0.68;;
49758;SDS011;35654;46.080;11.118;2022-09-09T14:51:35;2.17;;;0.70;;
49758;SDS011;35654;46.080;11.118;2022-09-09T14:54:01;1.52;;;0.70;;
49758;SDS011;35654;46.080;11.118;2022-09-09T14:56:29;1.00;;;0.70;;
49758;SDS011;35654;46.080;11.118;2022-09-09T14:58:57;3.25;;;0.93;;
49758;SDS011;35654;46.080;11.118;2022-09-09T15:01:24;0.50;;;0.43;;
49758;SDS011;35654;46.080;11.118;2022-09-09T15:03:54;1.63;;;0.60;;
49758;SDS011;35654;46.080;11.118;2022-09-09T15:06:24;1.27;;;0.50;;
49758;SDS011;35654;46.080;11.118;2022-09-09T15:08:51;1.98;;;0.63;;
49758;SDS011;35654;46.080;11.118;2022-09-09T15:11:18;0.82;;;0.57;;
49758;SDS011;35654;46.080;11.118;2022-09-09T15:13:45;1.52;;;0.60;;
49758;SDS011;35654;46.080;11.118;2022-09-09T15:18:49;4.38;;;0.80;;
49758;SDS011;35654;46.080;11.118;2022-09-09T15:21:17;0.90;;;0.60;;
49758;SDS011;35654;46.080;11.118;2022-09-09T15:23:44;1.25;;;0.70;;
49758;SDS011;35654;46.080;11.118;2022-09-09T15:26:11;3.40;;;0.68;;
49758;SDS011;35654;46.080;11.118;2022-09-09T15:28:39;1.50;;;0.60;;
49758;SDS011;35654;46.080;11.118;2022-09-09T15:31:06;1.98;;;0.40;;
49758;SDS011;35654;46.080;11.118;2022-09-09T15:33:32;0.50;;;0.50;;
49758;SDS011;35654;46.080;11.118;2022-09-09T15:35:57;1.48;;;0.60;;
49758;SDS011;35654;46.080;11.118;2022-09-09T15:38:23;1.17;;;0.45;;
49758;SDS011;35654;46.080;11.118;2022-09-09T15:40:53;2.33;;;0.63;;
49758;SDS011;35654;46.080;11.118;2022-09-09T15:43:19;1.80;;;0.60;;
49758;SDS011;35654;46.080;11.118;2022-09-09T15:45:45;2.05;;;0.80;;
49758;SDS011;35654;46.080;11.118;2022-09-09T15:48:16;1.15;;;0.60;;
49758;SDS011;35654;46.080;11.118;2022-09-09T15:50:42;1.27;;;0.80;;
49758;SDS011;35654;46.080;11.118;2022-09-09T15:53:07;0.40;;;0.40;;
49758;SDS011;35654;46.080;11.118;2022-09-09T15:55:32;1.00;;;0.50;;
49758;SDS011;35654;46.080;11.118;2022-09-09T15:57:58;3.38;;;0.80;;
49758;SDS011;35654;46.080;11.118;2022-09-09T16:00:23;1.30;;;0.70;;
49758;SDS011;35654;46.080;11.118;2022-09-09T16:02:49;1.73;;;0.60;;
49758;SDS011;35654;46.080;11.118;2022-09-09T16:05:15;2.85;;;0.57;;
49758;SDS011;35654;46.080;11.118;2022-09-09T16:07:40;1.02;;;0.70;;
49758;SDS011;35654;46.080;11.118;2022-09-09T16:10:07;1.85;;;0.80;;
49758;SDS011;35654;46.080;11.118;2022-09-09T16:12:33;3.13;;;0.82;;
49758;SDS011;35654;46.080;11.118;2022-09-09T16:14:58;2.30;;;0.73;;
49758;SDS011;35654;46.080;11.118;2022-09-09T16:17:24;2.42;;;0.90;;
49758;SDS011;35654;46.080;11.118;2022-09-09T16:22:15;4.03;;;0.80;;
49758;SDS011;35654;46.080;11.118;2022-09-09T16:27:06;1.15;;;0.80;;
49758;SDS011;35654;46.080;11.118;2022-09-09T16:31:57;1.85;;;0.80;;
49758;SDS011;35654;46.080;11.118;2022-09-09T16:34:23;1.98;;;0.80;;
49758;SDS011;35654;46.080;11.118;2022-09-09T16:36:50;3.13;;;0.80;;
49758;SDS011;35654;46.080;11.118;2022-09-09T16:41:43;1.77;;;0.98;;
49758;SDS011;35654;46.080;11.118;2022-09-09T16:44:10;2.50;;;1.10;;
49758;SDS011;35654;46.080;11.118;2022-09-09T16:46:38;7.32;;;3.10;;
49758;SDS011;35654;46.080;11.118;2022-09-09T16:49:06;2.13;;;0.90;;
49758;SDS011;35654;46.080;11.118;2022-09-09T16:51:36;1.33;;;0.75;;
49758;SDS011;35654;46.080;11.118;2022-09-09T16:54:05;2.08;;;1.00;;
49758;SDS011;35654;46.080;11.118;2022-09-09T16:56:32;3.28;;;1.10;;
49758;SDS011;35654;46.080;11.118;2022-09-09T16:59:02;2.38;;;0.85;;
49758;SDS011;35654;46.080;11.118;2022-09-09T17:01:31;1.48;;;1.00;;
49758;SDS011;35654;46.080;11.118;2022-09-09T17:04:06;3.65;;;1.20;;
49758;SDS011;35654;46.080;11.118;2022-09-09T17:06:34;1.95;;;1.00;;
49758;SDS011;35654;46.080;11.118;2022-09-09T17:09:03;1.00;;;0.80;;
49758;SDS011;35654;46.080;11.118;2022-09-09T17:11:37;4.60;;;1.38;;
49758;SDS011;35654;46.080;11.118;2022-09-09T17:14:04;1.98;;;0.80;;
49758;SDS011;35654;46.080;11.118;2022-09-09T17:16:31;2.13;;;1.17;;
49758;SDS011;35654;46.080;11.118;2022-09-09T17:18:59;2.30;;;0.80;;
49758;SDS011;35654;46.080;11.118;2022-09-09T17:21:26;2.78;;;0.90;;
49758;SDS011;35654;46.080;11.118;2022-09-09T17:23:53;4.47;;;1.27;;
49758;SDS011;35654;46.080;11.118;2022-09-09T17:26:19;2.65;;;0.80;;
49758;SDS011;35654;46.080;11.118;2022-09-09T17:28:46;2.35;;;1.00;;
49758;SDS011;35654;46.080;11.118;2022-09-09T17:31:13;2.97;;;0.80;;
49758;SDS011;35654;46.080;11.118;2022-09-09T17:33:42;1.13;;;0.82;;
49758;SDS011;35654;46.080;11.118;2022-09-09T17:36:12;4.00;;;1.08;;
49758;SDS011;35654;46.080;11.118;2022-09-09T17:38:44;7.47;;;3.22;;
49758;SDS011;35654;46.080;11.118;2022-09-09T17:43:43;2.00;;;0.95;;
49758;SDS011;35654;46.080;11.118;2022-09-09T17:48:40;3.95;;;1.35;;
49758;SDS011;35654;46.080;11.118;2022-09-09T17:51:07;2.35;;;1.23;;
49758;SDS011;35654;46.080;11.118;2022-09-09T17:53:40;2.03;;;0.77;;